Terminal Aerodrome Forecast
Issued by NWS

Home | Current Version | Previous Version | Text Only | Print | Product List | Glossary On
Versions: 1 2 3 4 5 6 7 8 9 10 11 12 13 14 15 16
000
FTUS46 KLOX 042339
TAFLGB
TAF
KLGB 042339Z 0500/0524 30012KT P6SM SCT200
     FM050400 VRB05KT P6SM SCT200
     FM050800 VRB05KT P6SM SCT008 SCT200
     FM051800 18009KT P6SM SCT200
     FM052300 29012KT P6SM SCT200=

USA.gov is the U.S. government's official web portal to all federal, state and local government web resources and services.